sensor_id;sensor_type;location;lat;lon;timestamp;pressure;altitude;pressure_sealevel;temperature;humidity
64253;BME280;50592;52.958;-7.470;2023-05-19T00:00:25;101817.28;;;12.63;100.00
64253;BME280;50592;52.958;-7.470;2023-05-19T00:02:56;101819.00;;;12.64;100.00
64253;BME280;50592;52.958;-7.470;2023-05-19T00:05:28;101811.63;;;12.68;100.00
64253;BME280;50592;52.958;-7.470;2023-05-19T00:07:58;101809.34;;;12.63;100.00
64253;BME280;50592;52.958;-7.470;2023-05-19T00:10:29;101808.63;;;12.61;100.00
64253;BME280;50592;52.958;-7.470;2023-05-19T00:13:00;101816.00;;;12.58;100.00
64253;BME280;50592;52.958;-7.470;2023-05-19T00:15:30;101823.22;;;12.56;100.00
64253;BME280;50592;52.958;-7.470;2023-05-19T00:18:00;101826.38;;;12.49;100.00
64253;BME280;50592;52.958;-7.470;2023-05-19T00:20:30;101838.91;;;12.47;100.00
64253;BME280;50592;52.958;-7.470;2023-05-19T00:23:00;101832.06;;;12.33;100.00
64253;BME280;50592;52.958;-7.470;2023-05-19T00:25:30;101837.97;;;12.25;100.00
64253;BME280;50592;52.958;-7.470;2023-05-19T00:27:56;101833.88;;;12.10;100.00
64253;BME280;50592;52.958;-7.470;2023-05-19T00:30:27;101836.50;;;12.10;100.00
64253;BME280;50592;52.958;-7.470;2023-05-19T00:32:57;101841.28;;;12.04;100.00
64253;BME280;50592;52.958;-7.470;2023-05-19T00:35:27;101833.59;;;12.01;100.00
64253;BME280;50592;52.958;-7.470;2023-05-19T00:37:56;101841.78;;;11.98;100.00
64253;BME280;50592;52.958;-7.470;2023-05-19T00:40:28;101842.75;;;11.97;100.00
64253;BME280;50592;52.958;-7.470;2023-05-19T00:42:59;101844.41;;;11.87;100.00
64253;BME280;50592;52.958;-7.470;2023-05-19T00:45:29;101846.34;;;11.85;100.00
64253;BME280;50592;52.958;-7.470;2023-05-19T00:47:59;101855.59;;;11.79;100.00
64253;BME280;50592;52.958;-7.470;2023-05-19T00:50:29;101854.16;;;11.75;100.00
64253;BME280;50592;52.958;-7.470;2023-05-19T00:52:56;101861.19;;;11.63;100.00
64253;BME280;50592;52.958;-7.470;2023-05-19T00:55:30;101848.69;;;11.65;100.00
64253;BME280;50592;52.958;-7.470;2023-05-19T00:57:58;101847.00;;;11.52;100.00
64253;BME280;50592;52.958;-7.470;2023-05-19T01:00:28;101841.56;;;11.54;100.00
64253;BME280;50592;52.958;-7.470;2023-05-19T01:02:55;101838.31;;;11.50;100.00
64253;BME280;50592;52.958;-7.470;2023-05-19T01:05:24;101848.91;;;11.50;100.00
64253;BME280;50592;52.958;-7.470;2023-05-19T01:07:52;101853.09;;;11.41;100.00
64253;BME280;50592;52.958;-7.470;2023-05-19T01:10:22;101858.72;;;11.37;100.00
64253;BME280;50592;52.958;-7.470;2023-05-19T01:12:49;101857.47;;;11.29;100.00
64253;BME280;50592;52.958;-7.470;2023-05-19T01:15:19;101860.25;;;11.28;100.00
64253;BME280;50592;52.958;-7.470;2023-05-19T01:18:00;101863.97;;;11.25;100.00
64253;BME280;50592;52.958;-7.470;2023-05-19T01:20:40;101883.28;;;11.14;100.00
64253;BME280;50592;52.958;-7.470;2023-05-19T01:29:30;101866.59;;;11.01;100.00
64253;BME280;50592;52.958;-7.470;2023-05-19T01:31:57;101860.63;;;10.99;100.00
64253;BME280;50592;52.958;-7.470;2023-05-19T01:34:29;101858.19;;;10.96;100.00
64253;BME280;50592;52.958;-7.470;2023-05-19T01:36:57;101844.78;;;10.86;100.00
64253;BME280;50592;52.958;-7.470;2023-05-19T01:39:29;101846.78;;;10.82;100.00
64253;BME280;50592;52.958;-7.470;2023-05-19T01:42:00;101840.16;;;10.76;100.00
64253;BME280;50592;52.958;-7.470;2023-05-19T01:44:31;101837.63;;;10.75;100.00
64253;BME280;50592;52.958;-7.470;2023-05-19T01:47:01;101846.59;;;10.72;100.00
64253;BME280;50592;52.958;-7.470;2023-05-19T01:49:32;101844.94;;;10.71;100.00
64253;BME280;50592;52.958;-7.470;2023-05-19T01:52:02;101832.91;;;10.67;100.00
64253;BME280;50592;52.958;-7.470;2023-05-19T01:54:32;101831.06;;;10.67;100.00
64253;BME280;50592;52.958;-7.470;2023-05-19T01:57:23;101825.13;;;10.77;100.00
64253;BME280;50592;52.958;-7.470;2023-05-19T02:03:36;101812.75;;;11.02;100.00
64253;BME280;50592;52.958;-7.470;2023-05-19T02:09:06;101824.91;;;11.29;100.00
64253;BME280;50592;52.958;-7.470;2023-05-19T02:11:39;101837.91;;;11.32;100.00
64253;BME280;50592;52.958;-7.470;2023-05-19T02:14:28;101839.69;;;11.32;100.00
64253;BME280;50592;52.958;-7.470;2023-05-19T02:16:56;101849.66;;;11.28;100.00
64253;BME280;50592;52.958;-7.470;2023-05-19T02:19:30;101850.50;;;11.28;100.00
64253;BME280;50592;52.958;-7.470;2023-05-19T02:21:57;101848.84;;;11.27;100.00
64253;BME280;50592;52.958;-7.470;2023-05-19T02:24:27;101849.44;;;11.31;100.00
64253;BME280;50592;52.958;-7.470;2023-05-19T02:26:59;101846.19;;;11.27;100.00
64253;BME280;50592;52.958;-7.470;2023-05-19T02:29:26;101851.72;;;11.24;100.00
64253;BME280;50592;52.958;-7.470;2023-05-19T02:31:55;101847.13;;;11.26;100.00
64253;BME280;50592;52.958;-7.470;2023-05-19T02:34:21;101857.59;;;11.28;100.00
64253;BME280;50592;52.958;-7.470;2023-05-19T02:36:51;101857.88;;;11.36;100.00
64253;BME280;50592;52.958;-7.470;2023-05-19T02:39:21;101862.59;;;11.44;100.00
64253;BME280;50592;52.958;-7.470;2023-05-19T02:41:48;101872.09;;;11.47;100.00
64253;BME280;50592;52.958;-7.470;2023-05-19T02:44:18;101868.16;;;11.52;100.00
64253;BME280;50592;52.958;-7.470;2023-05-19T02:46:47;101859.03;;;11.57;100.00
64253;BME280;50592;52.958;-7.470;2023-05-19T02:49:17;101855.44;;;11.58;100.00
64253;BME280;50592;52.958;-7.470;2023-05-19T02:51:47;101853.50;;;11.60;100.00
64253;BME280;50592;52.958;-7.470;2023-05-19T02:54:14;101852.66;;;11.59;100.00
64253;BME280;50592;52.958;-7.470;2023-05-19T02:56:42;101847.97;;;11.63;100.00
64253;BME280;50592;52.958;-7.470;2023-05-19T02:59:09;101850.03;;;11.59;100.00
64253;BME280;50592;52.958;-7.470;2023-05-19T03:01:39;101851.09;;;11.57;100.00
64253;BME280;50592;52.958;-7.470;2023-05-19T03:04:09;101857.59;;;11.52;100.00
64253;BME280;50592;52.958;-7.470;2023-05-19T03:06:39;101853.25;;;11.51;100.00
64253;BME280;50592;52.958;-7.470;2023-05-19T03:09:09;101845.63;;;11.47;100.00
64253;BME280;50592;52.958;-7.470;2023-05-19T03:11:39;101850.34;;;11.43;100.00
64253;BME280;50592;52.958;-7.470;2023-05-19T03:14:06;101854.25;;;11.37;100.00
64253;BME280;50592;52.958;-7.470;2023-05-19T03:16:40;101856.31;;;11.34;100.00
64253;BME280;50592;52.958;-7.470;2023-05-19T03:19:10;101855.56;;;11.32;100.00
64253;BME280;50592;52.958;-7.470;2023-05-19T03:21:40;101852.53;;;11.25;100.00
64253;BME280;50592;52.958;-7.470;2023-05-19T03:24:07;101849.00;;;11.13;100.00
64253;BME280;50592;52.958;-7.470;2023-05-19T03:26:36;101861.09;;;11.04;100.00
64253;BME280;50592;52.958;-7.470;2023-05-19T03:29:03;101861.53;;;10.98;100.00
64253;BME280;50592;52.958;-7.470;2023-05-19T03:31:36;101860.84;;;10.96;100.00
64253;BME280;50592;52.958;-7.470;2023-05-19T03:34:04;101867.28;;;10.91;100.00
64253;BME280;50592;52.958;-7.470;2023-05-19T03:36:33;101863.78;;;10.91;100.00
64253;BME280;50592;52.958;-7.470;2023-05-19T03:39:08;101869.31;;;10.88;100.00
64253;BME280;50592;52.958;-7.470;2023-05-19T03:41:39;101872.69;;;10.90;100.00
64253;BME280;50592;52.958;-7.470;2023-05-19T03:44:09;101863.66;;;10.92;100.00
64253;BME280;50592;52.958;-7.470;2023-05-19T03:46:38;101865.50;;;10.92;100.00
64253;BME280;50592;52.958;-7.470;2023-05-19T03:49:08;101863.78;;;10.91;100.00
64253;BME280;50592;52.958;-7.470;2023-05-19T03:51:57;101877.47;;;10.85;100.00
64253;BME280;50592;52.958;-7.470;2023-05-19T03:54:45;101868.28;;;10.77;100.00
64253;BME280;50592;52.958;-7.470;2023-05-19T03:57:15;101869.03;;;10.79;100.00
64253;BME280;50592;52.958;-7.470;2023-05-19T03:59:45;101864.69;;;10.78;100.00
64253;BME280;50592;52.958;-7.470;2023-05-19T04:02:11;101870.31;;;10.74;100.00
64253;BME280;50592;52.958;-7.470;2023-05-19T04:04:40;101872.34;;;10.70;100.00
64253;BME280;50592;52.958;-7.470;2023-05-19T04:07:07;101877.31;;;10.62;100.00
64253;BME280;50592;52.958;-7.470;2023-05-19T04:09:36;101879.00;;;10.63;100.00
64253;BME280;50592;52.958;-7.470;2023-05-19T04:12:03;101878.81;;;10.53;100.00
64253;BME280;50592;52.958;-7.470;2023-05-19T04:14:33;101878.31;;;10.48;100.00
64253;BME280;50592;52.958;-7.470;2023-05-19T04:17:04;101879.41;;;10.43;100.00
64253;BME280;50592;52.958;-7.470;2023-05-19T04:19:34;101876.88;;;10.42;100.00
64253;BME280;50592;52.958;-7.470;2023-05-19T04:22:04;101877.31;;;10.36;100.00
64253;BME280;50592;52.958;-7.470;2023-05-19T04:24:33;101873.81;;;10.35;100.00
64253;BME280;50592;52.958;-7.470;2023-05-19T04:27:01;101876.19;;;10.27;100.00
64253;BME280;50592;52.958;-7.470;2023-05-19T04:29:31;101879.84;;;10.24;100.00
64253;BME280;50592;52.958;-7.470;2023-05-19T04:31:59;101882.72;;;10.21;100.00
64253;BME280;50592;52.958;-7.470;2023-05-19T04:34:28;101892.56;;;10.19;100.00
64253;BME280;50592;52.958;-7.470;2023-05-19T04:36:55;101883.78;;;10.18;100.00
64253;BME280;50592;52.958;-7.470;2023-05-19T04:39:24;101886.44;;;10.18;100.00
64253;BME280;50592;52.958;-7.470;2023-05-19T04:41:51;101890.03;;;10.17;100.00
64253;BME280;50592;52.958;-7.470;2023-05-19T04:44:21;101890.53;;;10.23;100.00
64253;BME280;50592;52.958;-7.470;2023-05-19T04:46:50;101899.44;;;10.22;100.00
64253;BME280;50592;52.958;-7.470;2023-05-19T04:49:23;101896.56;;;10.25;100.00
64253;BME280;50592;52.958;-7.470;2023-05-19T04:51:53;101903.31;;;10.29;100.00
64253;BME280;50592;52.958;-7.470;2023-05-19T04:54:22;101905.25;;;10.27;100.00
64253;BME280;50592;52.958;-7.470;2023-05-19T04:56:52;101897.41;;;10.38;100.00
64253;BME280;50592;52.958;-7.470;2023-05-19T04:59:22;101904.94;;;10.45;100.00
64253;BME280;50592;52.958;-7.470;2023-05-19T05:01:52;101906.72;;;10.44;100.00
64253;BME280;50592;52.958;-7.470;2023-05-19T05:04:22;101919.81;;;10.46;100.00
64253;BME280;50592;52.958;-7.470;2023-05-19T05:06:52;101916.88;;;10.50;100.00
64253;BME280;50592;52.958;-7.470;2023-05-19T05:09:22;101929.03;;;10.53;100.00
64253;BME280;50592;52.958;-7.470;2023-05-19T05:11:50;101933.59;;;10.51;100.00
64253;BME280;50592;52.958;-7.470;2023-05-19T05:14:18;101925.78;;;10.49;100.00
64253;BME280;50592;52.958;-7.470;2023-05-19T05:16:48;101931.47;;;10.56;100.00
64253;BME280;50592;52.958;-7.470;2023-05-19T05:19:20;101924.59;;;10.53;100.00
64253;BME280;50592;52.958;-7.470;2023-05-19T05:21:50;101930.84;;;10.52;100.00
64253;BME280;50592;52.958;-7.470;2023-05-19T05:24:21;101931.06;;;10.49;100.00
64253;BME280;50592;52.958;-7.470;2023-05-19T05:26:52;101929.47;;;10.47;100.00
64253;BME280;50592;52.958;-7.470;2023-05-19T05:29:22;101939.72;;;10.51;100.00
64253;BME280;50592;52.958;-7.470;2023-05-19T05:31:53;101928.44;;;10.49;100.00
64253;BME280;50592;52.958;-7.470;2023-05-19T05:34:24;101928.44;;;10.49;100.00
64253;BME280;50592;52.958;-7.470;2023-05-19T05:36:50;101928.00;;;10.56;100.00
64253;BME280;50592;52.958;-7.470;2023-05-19T05:39:20;101916.97;;;10.62;100.00
64253;BME280;50592;52.958;-7.470;2023-05-19T05:41:46;101921.72;;;10.70;100.00
64253;BME280;50592;52.958;-7.470;2023-05-19T05:44:15;101926.59;;;10.76;100.00
64253;BME280;50592;52.958;-7.470;2023-05-19T05:46:43;101919.63;;;10.75;100.00
64253;BME280;50592;52.958;-7.470;2023-05-19T05:49:14;101931.53;;;10.81;100.00
64253;BME280;50592;52.958;-7.470;2023-05-19T05:51:46;101934.94;;;10.83;100.00
64253;BME280;50592;52.958;-7.470;2023-05-19T05:54:19;101928.78;;;10.82;100.00
64253;BME280;50592;52.958;-7.470;2023-05-19T05:56:51;101936.72;;;10.82;100.00
64253;BME280;50592;52.958;-7.470;2023-05-19T05:59:21;101940.44;;;10.79;100.00
64253;BME280;50592;52.958;-7.470;2023-05-19T06:01:51;101940.22;;;10.83;100.00
64253;BME280;50592;52.958;-7.470;2023-05-19T06:04:19;101949.72;;;10.85;100.00
64253;BME280;50592;52.958;-7.470;2023-05-19T06:06:48;101957.88;;;10.82;100.00
64253;BME280;50592;52.958;-7.470;2023-05-19T06:09:20;101945.63;;;10.81;100.00
64253;BME280;50592;52.958;-7.470;2023-05-19T06:11:49;101955.56;;;10.90;100.00
64253;BME280;50592;52.958;-7.470;2023-05-19T06:14:19;101945.16;;;11.00;100.00
64253;BME280;50592;52.958;-7.470;2023-05-19T06:17:08;101947.03;;;11.11;100.00
64253;BME280;50592;52.958;-7.470;2023-05-19T06:19:34;101940.09;;;11.22;100.00
64253;BME280;50592;52.958;-7.470;2023-05-19T06:22:03;101947.16;;;11.34;100.00
64253;BME280;50592;52.958;-7.470;2023-05-19T06:24:30;101946.56;;;11.42;100.00
64253;BME280;50592;52.958;-7.470;2023-05-19T06:26:59;101953.88;;;11.51;100.00
64253;BME280;50592;52.958;-7.470;2023-05-19T06:29:26;101948.56;;;11.51;100.00
64253;BME280;50592;52.958;-7.470;2023-05-19T06:31:57;101939.09;;;11.60;100.00
64253;BME280;50592;52.958;-7.470;2023-05-19T06:34:24;101942.13;;;11.67;100.00
64253;BME280;50592;52.958;-7.470;2023-05-19T06:36:54;101933.63;;;11.75;100.00
64253;BME280;50592;52.958;-7.470;2023-05-19T06:39:26;101930.38;;;11.83;100.00
64253;BME280;50592;52.958;-7.470;2023-05-19T06:41:56;101929.31;;;11.85;100.00
64253;BME280;50592;52.958;-7.470;2023-05-19T06:45:01;101932.06;;;11.84;100.00
64253;BME280;50592;52.958;-7.470;2023-05-19T06:47:29;101934.25;;;11.90;100.00
64253;BME280;50592;52.958;-7.470;2023-05-19T07:00:35;101930.63;;;12.27;100.00
64253;BME280;50592;52.958;-7.470;2023-05-19T07:03:06;101930.00;;;12.23;100.00
64253;BME280;50592;52.958;-7.470;2023-05-19T07:05:37;101932.78;;;12.22;100.00
64253;BME280;50592;52.958;-7.470;2023-05-19T07:08:06;101934.25;;;12.26;100.00
64253;BME280;50592;52.958;-7.470;2023-05-19T07:10:34;101940.72;;;12.22;100.00
64253;BME280;50592;52.958;-7.470;2023-05-19T07:13:07;101936.91;;;12.26;100.00
64253;BME280;50592;52.958;-7.470;2023-05-19T07:15:36;101935.19;;;12.25;100.00
64253;BME280;50592;52.958;-7.470;2023-05-19T07:18:05;101935.06;;;12.26;100.00
64253;BME280;50592;52.958;-7.470;2023-05-19T07:20:32;101938.09;;;12.33;100.00
64253;BME280;50592;52.958;-7.470;2023-05-19T07:23:00;101948.47;;;12.36;100.00
64253;BME280;50592;52.958;-7.470;2023-05-19T07:25:29;101950.06;;;12.39;100.00
64253;BME280;50592;52.958;-7.470;2023-05-19T07:27:57;101961.84;;;12.35;100.00
64253;BME280;50592;52.958;-7.470;2023-05-19T07:30:26;101965.59;;;12.32;100.00
64253;BME280;50592;52.958;-7.470;2023-05-19T07:32:53;101963.53;;;12.24;100.00
64253;BME280;50592;52.958;-7.470;2023-05-19T07:35:22;101972.31;;;12.25;100.00
64253;BME280;50592;52.958;-7.470;2023-05-19T07:37:50;101971.94;;;12.18;100.00
64253;BME280;50592;52.958;-7.470;2023-05-19T07:40:19;101970.13;;;12.19;100.00
64253;BME280;50592;52.958;-7.470;2023-05-19T07:42:48;101970.13;;;12.19;100.00
64253;BME280;50592;52.958;-7.470;2023-05-19T07:45:17;101972.91;;;12.17;100.00
64253;BME280;50592;52.958;-7.470;2023-05-19T07:47:44;101978.94;;;12.19;100.00
64253;BME280;50592;52.958;-7.470;2023-05-19T07:50:13;101973.50;;;12.21;100.00
64253;BME280;50592;52.958;-7.470;2023-05-19T07:52:39;101980.38;;;12.23;100.00
64253;BME280;50592;52.958;-7.470;2023-05-19T07:55:08;101973.03;;;12.27;100.00
64253;BME280;50592;52.958;-7.470;2023-05-19T07:57:35;101967.75;;;12.27;100.00
64253;BME280;50592;52.958;-7.470;2023-05-19T08:00:04;101972.69;;;12.32;100.00
64253;BME280;50592;52.958;-7.470;2023-05-19T08:02:37;101964.72;;;12.32;100.00
64253;BME280;50592;52.958;-7.470;2023-05-19T08:05:06;101973.91;;;12.39;100.00
64253;BME280;50592;52.958;-7.470;2023-05-19T08:07:34;101976.91;;;12.46;100.00
64253;BME280;50592;52.958;-7.470;2023-05-19T08:10:03;101985.13;;;12.54;100.00
64253;BME280;50592;52.958;-7.470;2023-05-19T08:12:30;101980.31;;;12.59;100.00
64253;BME280;50592;52.958;-7.470;2023-05-19T08:14:59;101976.81;;;12.70;100.00
64253;BME280;50592;52.958;-7.470;2023-05-19T08:17:26;101970.44;;;12.73;100.00
64253;BME280;50592;52.958;-7.470;2023-05-19T08:19:55;101982.84;;;12.84;100.00
64253;BME280;50592;52.958;-7.470;2023-05-19T08:22:25;101971.16;;;12.86;100.00
64253;BME280;50592;52.958;-7.470;2023-05-19T08:24:55;101958.59;;;12.88;100.00
64253;BME280;50592;52.958;-7.470;2023-05-19T08:27:25;101961.84;;;12.92;100.00
64253;BME280;50592;52.958;-7.470;2023-05-19T08:29:52;101960.06;;;12.93;100.00
64253;BME280;50592;52.958;-7.470;2023-05-19T08:32:21;101964.00;;;12.98;100.00
64253;BME280;50592;52.958;-7.470;2023-05-19T08:34:48;101961.84;;;13.03;100.00
64253;BME280;50592;52.958;-7.470;2023-05-19T08:48:42;101935.16;;;13.61;100.00
64253;BME280;50592;52.958;-7.470;2023-05-19T08:54:12;101945.31;;;13.56;100.00
64253;BME280;50592;52.958;-7.470;2023-05-19T08:56:43;101943.38;;;13.58;100.00
64253;BME280;50592;52.958;-7.470;2023-05-19T08:59:14;101952.94;;;13.49;100.00
64253;BME280;50592;52.958;-7.470;2023-05-19T09:01:44;101955.38;;;13.40;100.00
64253;BME280;50592;52.958;-7.470;2023-05-19T09:04:15;101959.34;;;13.35;100.00
64253;BME280;50592;52.958;-7.470;2023-05-19T09:06:45;101965.41;;;13.25;100.00
64253;BME280;50592;52.958;-7.470;2023-05-19T09:09:15;101951.34;;;13.13;100.00
64253;BME280;50592;52.958;-7.470;2023-05-19T09:11:45;101957.22;;;13.17;100.00
64253;BME280;50592;52.958;-7.470;2023-05-19T09:14:13;101947.94;;;13.11;100.00
64253;BME280;50592;52.958;-7.470;2023-05-19T09:16:40;101947.56;;;13.16;100.00
64253;BME280;50592;52.958;-7.470;2023-05-19T09:19:12;101944.53;;;13.21;100.00
64253;BME280;50592;52.958;-7.470;2023-05-19T09:21:43;101944.53;;;13.21;100.00
64253;BME280;50592;52.958;-7.470;2023-05-19T09:24:13;101946.56;;;13.28;100.00
64253;BME280;50592;52.958;-7.470;2023-05-19T09:26:41;101950.94;;;13.30;100.00
64253;BME280;50592;52.958;-7.470;2023-05-19T09:29:15;101948.97;;;13.32;100.00
64253;BME280;50592;52.958;-7.470;2023-05-19T09:31:54;101963.38;;;13.29;100.00
64253;BME280;50592;52.958;-7.470;2023-05-19T09:34:27;101954.28;;;13.32;100.00
64253;BME280;50592;52.958;-7.470;2023-05-19T09:36:57;101949.31;;;13.38;100.00
64253;BME280;50592;52.958;-7.470;2023-05-19T09:39:28;101952.09;;;13.48;100.00
64253;BME280;50592;52.958;-7.470;2023-05-19T09:42:03;101960.81;;;13.50;100.00
64253;BME280;50592;52.958;-7.470;2023-05-19T09:44:33;101959.91;;;13.50;100.00
64253;BME280;50592;52.958;-7.470;2023-05-19T09:47:03;101958.47;;;13.57;100.00
64253;BME280;50592;52.958;-7.470;2023-05-19T09:49:33;101964.63;;;13.58;100.00
64253;BME280;50592;52.958;-7.470;2023-05-19T09:52:03;101961.00;;;13.59;100.00
64253;BME280;50592;52.958;-7.470;2023-05-19T09:54:32;101960.03;;;13.60;100.00
64253;BME280;50592;52.958;-7.470;2023-05-19T09:57:03;101963.00;;;13.67;100.00
64253;BME280;50592;52.958;-7.470;2023-05-19T09:59:30;101958.31;;;13.70;100.00
64253;BME280;50592;52.958;-7.470;2023-05-19T10:02:00;101961.56;;;13.74;100.00
64253;BME280;50592;52.958;-7.470;2023-05-19T10:04:28;101959.94;;;13.83;100.00
64253;BME280;50592;52.958;-7.470;2023-05-19T10:06:58;101957.13;;;13.84;100.00
64253;BME280;50592;52.958;-7.470;2023-05-19T10:09:26;101959.09;;;13.82;100.00
64253;BME280;50592;52.958;-7.470;2023-05-19T10:11:57;101957.59;;;13.89;100.00
64253;BME280;50592;52.958;-7.470;2023-05-19T10:14:28;101953.66;;;13.84;100.00
64253;BME280;50592;52.958;-7.470;2023-05-19T10:16:58;101959.66;;;13.86;100.00
64253;BME280;50592;52.958;-7.470;2023-05-19T10:19:28;101964.03;;;13.87;100.00
64253;BME280;50592;52.958;-7.470;2023-05-19T10:21:58;101965.84;;;13.86;100.00
64253;BME280;50592;52.958;-7.470;2023-05-19T10:24:28;101967.22;;;13.81;100.00
64253;BME280;50592;52.958;-7.470;2023-05-19T10:27:04;101972.25;;;13.84;100.00
64253;BME280;50592;52.958;-7.470;2023-05-19T10:29:39;101976.25;;;13.78;100.00
64253;BME280;50592;52.958;-7.470;2023-05-19T10:32:12;101972.25;;;13.84;100.00
64253;BME280;50592;52.958;-7.470;2023-05-19T10:40:26;101966.00;;;14.06;100.00
64253;BME280;50592;52.958;-7.470;2023-05-19T10:43:20;101973.19;;;14.16;100.00
64253;BME280;50592;52.958;-7.470;2023-05-19T10:45:48;101970.38;;;14.17;100.00
64253;BME280;50592;52.958;-7.470;2023-05-19T10:48:19;101968.28;;;14.21;100.00
64253;BME280;50592;52.958;-7.470;2023-05-19T10:50:47;101975.19;;;14.23;100.00
64253;BME280;50592;52.958;-7.470;2023-05-19T10:53:17;101976.34;;;14.31;100.00
64253;BME280;50592;52.958;-7.470;2023-05-19T10:55:46;101976.66;;;14.37;100.00
64253;BME280;50592;52.958;-7.470;2023-05-19T10:58:38;101983.78;;;14.37;100.00
64253;BME280;50592;52.958;-7.470;2023-05-19T11:01:06;101991.22;;;14.33;100.00
64253;BME280;50592;52.958;-7.470;2023-05-19T11:03:47;101986.44;;;14.37;100.00
64253;BME280;50592;52.958;-7.470;2023-05-19T11:08:59;101984.84;;;14.46;100.00
64253;BME280;50592;52.958;-7.470;2023-05-19T11:11:52;101980.78;;;14.51;100.00
64253;BME280;50592;52.958;-7.470;2023-05-19T11:14:25;101976.59;;;14.59;100.00
64253;BME280;50592;52.958;-7.470;2023-05-19T11:16:56;101982.91;;;14.58;100.00
64253;BME280;50592;52.958;-7.470;2023-05-19T11:19:31;101979.41;;;14.57;100.00
64253;BME280;50592;52.958;-7.470;2023-05-19T11:22:08;101977.81;;;14.45;100.00
64253;BME280;50592;52.958;-7.470;2023-05-19T11:24:45;101973.34;;;14.45;100.00
64253;BME280;50592;52.958;-7.470;2023-05-19T11:27:27;101976.06;;;14.55;100.00
64253;BME280;50592;52.958;-7.470;2023-05-19T11:30:08;101973.44;;;14.65;100.00
64253;BME280;50592;52.958;-7.470;2023-05-19T11:32:47;101971.47;;;14.67;100.00
64253;BME280;50592;52.958;-7.470;2023-05-19T11:35:18;101971.38;;;14.79;100.00
64253;BME280;50592;52.958;-7.470;2023-05-19T11:37:49;101972.69;;;14.84;100.00
64253;BME280;50592;52.958;-7.470;2023-05-19T11:40:22;101962.75;;;14.86;100.00
64253;BME280;50592;52.958;-7.470;2023-05-19T11:42:52;101963.06;;;14.93;100.00
64253;BME280;50592;52.958;-7.470;2023-05-19T11:45:25;101959.44;;;15.04;100.00
64253;BME280;50592;52.958;-7.470;2023-05-19T11:48:00;101954.56;;;15.09;100.00
64253;BME280;50592;52.958;-7.470;2023-05-19T11:50:34;101956.38;;;15.19;100.00
64253;BME280;50592;52.958;-7.470;2023-05-19T11:53:06;101954.16;;;15.24;100.00
64253;BME280;50592;52.958;-7.470;2023-05-19T11:55:41;101955.13;;;15.33;100.00
64253;BME280;50592;52.958;-7.470;2023-05-19T11:58:12;101943.91;;;15.39;100.00
64253;BME280;50592;52.958;-7.470;2023-05-19T12:00:43;101949.81;;;15.43;100.00
64253;BME280;50592;52.958;-7.470;2023-05-19T12:03:22;101955.88;;;15.45;100.00
64253;BME280;50592;52.958;-7.470;2023-05-19T12:05:55;101946.59;;;15.49;100.00
64253;BME280;50592;52.958;-7.470;2023-05-19T12:08:25;101945.63;;;15.60;100.00
64253;BME280;50592;52.958;-7.470;2023-05-19T12:10:55;101947.44;;;15.79;100.00
64253;BME280;50592;52.958;-7.470;2023-05-19T12:13:22;101940.13;;;15.81;100.00
64253;BME280;50592;52.958;-7.470;2023-05-19T12:15:52;101936.50;;;16.02;100.00
64253;BME280;50592;52.958;-7.470;2023-05-19T12:18:19;101937.00;;;16.16;100.00
64253;BME280;50592;52.958;-7.470;2023-05-19T12:20:48;101933.34;;;16.17;100.00
64253;BME280;50592;52.958;-7.470;2023-05-19T12:23:15;101926.47;;;16.24;100.00
64253;BME280;50592;52.958;-7.470;2023-05-19T12:25:44;101911.34;;;16.43;100.00
64253;BME280;50592;52.958;-7.470;2023-05-19T12:28:10;101911.16;;;16.54;100.00
64253;BME280;50592;52.958;-7.470;2023-05-19T12:30:39;101917.59;;;16.61;100.00
64253;BME280;50592;52.958;-7.470;2023-05-19T12:33:07;101913.66;;;16.66;100.00
64253;BME280;50592;52.958;-7.470;2023-05-19T12:35:36;101911.28;;;16.63;100.00
64253;BME280;50592;52.958;-7.470;2023-05-19T12:38:03;101916.94;;;16.49;100.00
64253;BME280;50592;52.958;-7.470;2023-05-19T12:40:33;101908.53;;;16.44;100.00
64253;BME280;50592;52.958;-7.470;2023-05-19T12:43:00;101913.78;;;16.26;100.00
64253;BME280;50592;52.958;-7.470;2023-05-19T12:45:34;101923.25;;;16.10;100.00
64253;BME280;50592;52.958;-7.470;2023-05-19T12:48:09;101919.03;;;16.18;100.00
64253;BME280;50592;52.958;-7.470;2023-05-19T12:50:39;101923.22;;;16.20;100.00
64253;BME280;50592;52.958;-7.470;2023-05-19T12:53:13;101919.69;;;16.30;100.00
64253;BME280;50592;52.958;-7.470;2023-05-19T12:55:44;101919.50;;;16.41;100.00
64253;BME280;50592;52.958;-7.470;2023-05-19T12:58:14;101919.78;;;16.48;100.00
64253;BME280;50592;52.958;-7.470;2023-05-19T13:00:45;101916.34;;;16.56;100.00
64253;BME280;50592;52.958;-7.470;2023-05-19T13:03:17;101916.69;;;16.71;100.00
64253;BME280;50592;52.958;-7.470;2023-05-19T13:05:48;101912.97;;;16.82;100.00
64253;BME280;50592;52.958;-7.470;2023-05-19T13:08:17;101905.31;;;16.97;100.00
64253;BME280;50592;52.958;-7.470;2023-05-19T13:10:53;101907.06;;;17.06;100.00
64253;BME280;50592;52.958;-7.470;2023-05-19T13:13:23;101901.16;;;17.13;100.00
64253;BME280;50592;52.958;-7.470;2023-05-19T13:15:53;101899.31;;;17.13;100.00
64253;BME280;50592;52.958;-7.470;2023-05-19T13:18:21;101908.53;;;17.19;100.00
64253;BME280;50592;52.958;-7.470;2023-05-19T13:20:52;101914.59;;;17.21;100.00
64253;BME280;50592;52.958;-7.470;2023-05-19T13:23:22;101917.63;;;17.08;100.00
64253;BME280;50592;52.958;-7.470;2023-05-19T13:25:53;101909.03;;;17.04;100.00
64253;BME280;50592;52.958;-7.470;2023-05-19T13:28:23;101916.13;;;16.95;100.00
64253;BME280;50592;52.958;-7.470;2023-05-19T13:30:53;101927.97;;;16.93;100.00
64253;BME280;50592;52.958;-7.470;2023-05-19T13:33:23;101921.09;;;16.90;100.00